sensor_id;sensor_type;location;lat;lon;timestamp;P1;durP1;ratioP1;P2;durP2;ratioP2
71236;SDS011;58984;51.960;5.582;2024-01-15T00:00:38;8.93;;;2.20;;
71236;SDS011;58984;51.960;5.582;2024-01-15T00:03:04;4.10;;;2.03;;
71236;SDS011;58984;51.960;5.582;2024-01-15T00:05:30;2.42;;;1.70;;
71236;SDS011;58984;51.960;5.582;2024-01-15T00:07:55;4.03;;;1.70;;
71236;SDS011;58984;51.960;5.582;2024-01-15T00:10:21;3.22;;;1.50;;
71236;SDS011;58984;51.960;5.582;2024-01-15T00:12:46;3.83;;;2.03;;
71236;SDS011;58984;51.960;5.582;2024-01-15T00:15:12;5.20;;;1.83;;
71236;SDS011;58984;51.960;5.582;2024-01-15T00:17:38;4.78;;;1.73;;
71236;SDS011;58984;51.960;5.582;2024-01-15T00:20:04;4.82;;;1.77;;
71236;SDS011;58984;51.960;5.582;2024-01-15T00:22:30;7.13;;;1.95;;
71236;SDS011;58984;51.960;5.582;2024-01-15T00:24:56;4.78;;;1.67;;
71236;SDS011;58984;51.960;5.582;2024-01-15T00:27:22;4.43;;;1.75;;
71236;SDS011;58984;51.960;5.582;2024-01-15T00:29:48;2.75;;;1.58;;
71236;SDS011;58984;51.960;5.582;2024-01-15T00:32:15;2.80;;;1.63;;
71236;SDS011;58984;51.960;5.582;2024-01-15T00:34:41;4.30;;;1.70;;
71236;SDS011;58984;51.960;5.582;2024-01-15T00:37:07;4.72;;;1.83;;
71236;SDS011;58984;51.960;5.582;2024-01-15T00:39:32;5.57;;;1.80;;
71236;SDS011;58984;51.960;5.582;2024-01-15T00:41:58;2.75;;;1.48;;
71236;SDS011;58984;51.960;5.582;2024-01-15T00:44:24;3.60;;;1.83;;
71236;SDS011;58984;51.960;5.582;2024-01-15T00:46:49;3.20;;;2.13;;
71236;SDS011;58984;51.960;5.582;2024-01-15T00:49:15;3.25;;;1.63;;
71236;SDS011;58984;51.960;5.582;2024-01-15T00:51:41;2.28;;;1.52;;
71236;SDS011;58984;51.960;5.582;2024-01-15T00:54:07;3.53;;;1.42;;
71236;SDS011;58984;51.960;5.582;2024-01-15T00:56:32;4.22;;;1.98;;
71236;SDS011;58984;51.960;5.582;2024-01-15T00:58:59;2.70;;;1.67;;
71236;SDS011;58984;51.960;5.582;2024-01-15T01:01:25;5.03;;;1.52;;
71236;SDS011;58984;51.960;5.582;2024-01-15T01:03:51;3.45;;;1.67;;
71236;SDS011;58984;51.960;5.582;2024-01-15T01:06:16;4.22;;;1.92;;
71236;SDS011;58984;51.960;5.582;2024-01-15T01:08:42;4.38;;;1.73;;
71236;SDS011;58984;51.960;5.582;2024-01-15T01:11:07;6.25;;;1.80;;
71236;SDS011;58984;51.960;5.582;2024-01-15T01:13:38;4.20;;;2.13;;
71236;SDS011;58984;51.960;5.582;2024-01-15T01:16:04;3.95;;;1.58;;
71236;SDS011;58984;51.960;5.582;2024-01-15T01:18:30;4.03;;;1.70;;
71236;SDS011;58984;51.960;5.582;2024-01-15T01:20:55;7.05;;;1.85;;
71236;SDS011;58984;51.960;5.582;2024-01-15T01:23:21;3.95;;;2.05;;
71236;SDS011;58984;51.960;5.582;2024-01-15T01:25:46;2.60;;;1.58;;
71236;SDS011;58984;51.960;5.582;2024-01-15T01:28:12;5.85;;;1.60;;
71236;SDS011;58984;51.960;5.582;2024-01-15T01:30:37;3.40;;;1.90;;
71236;SDS011;58984;51.960;5.582;2024-01-15T01:33:03;4.80;;;1.70;;
71236;SDS011;58984;51.960;5.582;2024-01-15T01:35:29;6.68;;;2.28;;
71236;SDS011;58984;51.960;5.582;2024-01-15T01:37:54;4.07;;;2.10;;
71236;SDS011;58984;51.960;5.582;2024-01-15T01:40:20;5.55;;;1.70;;
71236;SDS011;58984;51.960;5.582;2024-01-15T01:42:46;5.80;;;2.13;;
71236;SDS011;58984;51.960;5.582;2024-01-15T01:45:11;4.88;;;2.20;;
71236;SDS011;58984;51.960;5.582;2024-01-15T01:47:37;4.88;;;2.33;;
71236;SDS011;58984;51.960;5.582;2024-01-15T01:50:03;4.00;;;1.88;;
71236;SDS011;58984;51.960;5.582;2024-01-15T01:52:30;4.10;;;1.75;;
71236;SDS011;58984;51.960;5.582;2024-01-15T01:54:57;5.93;;;2.35;;
71236;SDS011;58984;51.960;5.582;2024-01-15T01:57:23;5.95;;;2.10;;
71236;SDS011;58984;51.960;5.582;2024-01-15T01:59:49;7.13;;;2.08;;
71236;SDS011;58984;51.960;5.582;2024-01-15T02:02:16;6.22;;;2.20;;
71236;SDS011;58984;51.960;5.582;2024-01-15T02:04:41;5.97;;;2.45;;
71236;SDS011;58984;51.960;5.582;2024-01-15T02:07:08;4.07;;;1.98;;
71236;SDS011;58984;51.960;5.582;2024-01-15T02:09:35;10.52;;;2.42;;
71236;SDS011;58984;51.960;5.582;2024-01-15T02:12:00;5.75;;;2.20;;
71236;SDS011;58984;51.960;5.582;2024-01-15T02:14:26;7.38;;;2.10;;
71236;SDS011;58984;51.960;5.582;2024-01-15T02:16:52;6.40;;;2.17;;
71236;SDS011;58984;51.960;5.582;2024-01-15T02:19:17;5.63;;;2.10;;
71236;SDS011;58984;51.960;5.582;2024-01-15T02:21:43;5.05;;;1.80;;
71236;SDS011;58984;51.960;5.582;2024-01-15T02:24:09;5.38;;;2.30;;
71236;SDS011;58984;51.960;5.582;2024-01-15T02:26:35;4.60;;;2.30;;
71236;SDS011;58984;51.960;5.582;2024-01-15T02:29:03;6.72;;;2.05;;
71236;SDS011;58984;51.960;5.582;2024-01-15T02:31:29;10.52;;;2.38;;
71236;SDS011;58984;51.960;5.582;2024-01-15T02:33:55;7.13;;;2.30;;
71236;SDS011;58984;51.960;5.582;2024-01-15T02:36:21;8.73;;;2.42;;
71236;SDS011;58984;51.960;5.582;2024-01-15T02:38:46;12.05;;;2.55;;
71236;SDS011;58984;51.960;5.582;2024-01-15T02:41:12;7.70;;;2.45;;
71236;SDS011;58984;51.960;5.582;2024-01-15T02:43:39;8.32;;;2.35;;
71236;SDS011;58984;51.960;5.582;2024-01-15T02:46:05;7.28;;;2.58;;
71236;SDS011;58984;51.960;5.582;2024-01-15T02:48:31;4.90;;;2.00;;
71236;SDS011;58984;51.960;5.582;2024-01-15T02:50:57;5.93;;;2.00;;
71236;SDS011;58984;51.960;5.582;2024-01-15T02:53:23;5.80;;;2.00;;
71236;SDS011;58984;51.960;5.582;2024-01-15T02:55:48;5.63;;;1.92;;
71236;SDS011;58984;51.960;5.582;2024-01-15T02:58:14;3.25;;;1.92;;
71236;SDS011;58984;51.960;5.582;2024-01-15T03:00:40;6.22;;;2.40;;
71236;SDS011;58984;51.960;5.582;2024-01-15T03:03:05;7.28;;;2.05;;
71236;SDS011;58984;51.960;5.582;2024-01-15T03:05:31;4.07;;;1.90;;
71236;SDS011;58984;51.960;5.582;2024-01-15T03:07:56;6.93;;;2.20;;
71236;SDS011;58984;51.960;5.582;2024-01-15T03:10:22;5.30;;;2.35;;
71236;SDS011;58984;51.960;5.582;2024-01-15T03:12:47;6.85;;;1.67;;
71236;SDS011;58984;51.960;5.582;2024-01-15T03:15:13;4.43;;;1.67;;
71236;SDS011;58984;51.960;5.582;2024-01-15T03:17:39;3.72;;;1.50;;
71236;SDS011;58984;51.960;5.582;2024-01-15T03:20:07;4.72;;;1.70;;
71236;SDS011;58984;51.960;5.582;2024-01-15T03:22:33;2.20;;;1.58;;
71236;SDS011;58984;51.960;5.582;2024-01-15T03:24:59;4.28;;;1.75;;
71236;SDS011;58984;51.960;5.582;2024-01-15T03:27:24;2.17;;;1.55;;
71236;SDS011;58984;51.960;5.582;2024-01-15T03:29:51;6.95;;;1.90;;
71236;SDS011;58984;51.960;5.582;2024-01-15T03:32:16;6.43;;;1.92;;
71236;SDS011;58984;51.960;5.582;2024-01-15T03:34:42;3.30;;;1.90;;
71236;SDS011;58984;51.960;5.582;2024-01-15T03:37:08;5.72;;;2.10;;
71236;SDS011;58984;51.960;5.582;2024-01-15T03:39:34;6.35;;;2.20;;
71236;SDS011;58984;51.960;5.582;2024-01-15T03:41:59;3.92;;;2.20;;
71236;SDS011;58984;51.960;5.582;2024-01-15T03:44:25;4.65;;;1.73;;
71236;SDS011;58984;51.960;5.582;2024-01-15T03:46:50;2.58;;;1.83;;
71236;SDS011;58984;51.960;5.582;2024-01-15T03:49:16;4.63;;;1.80;;
71236;SDS011;58984;51.960;5.582;2024-01-15T03:51:41;5.50;;;2.42;;
71236;SDS011;58984;51.960;5.582;2024-01-15T03:54:07;3.97;;;1.92;;
71236;SDS011;58984;51.960;5.582;2024-01-15T03:56:33;11.82;;;2.08;;
71236;SDS011;58984;51.960;5.582;2024-01-15T03:58:58;6.53;;;2.67;;
71236;SDS011;58984;51.960;5.582;2024-01-15T04:01:24;2.72;;;1.65;;
71236;SDS011;58984;51.960;5.582;2024-01-15T04:03:49;3.83;;;2.10;;
71236;SDS011;58984;51.960;5.582;2024-01-15T04:06:15;5.63;;;2.25;;
71236;SDS011;58984;51.960;5.582;2024-01-15T04:08:40;5.13;;;2.28;;
71236;SDS011;58984;51.960;5.582;2024-01-15T04:11:06;11.05;;;2.92;;
71236;SDS011;58984;51.960;5.582;2024-01-15T04:13:32;8.32;;;1.98;;
71236;SDS011;58984;51.960;5.582;2024-01-15T04:15:58;5.90;;;1.90;;
71236;SDS011;58984;51.960;5.582;2024-01-15T04:18:25;4.45;;;1.67;;
71236;SDS011;58984;51.960;5.582;2024-01-15T04:20:51;5.53;;;2.30;;
71236;SDS011;58984;51.960;5.582;2024-01-15T04:23:16;7.15;;;2.20;;
71236;SDS011;58984;51.960;5.582;2024-01-15T04:25:42;6.13;;;2.58;;
71236;SDS011;58984;51.960;5.582;2024-01-15T04:28:08;8.07;;;2.22;;
71236;SDS011;58984;51.960;5.582;2024-01-15T04:30:34;4.07;;;1.77;;
71236;SDS011;58984;51.960;5.582;2024-01-15T04:32:59;2.92;;;1.58;;
71236;SDS011;58984;51.960;5.582;2024-01-15T04:35:25;4.03;;;1.83;;
71236;SDS011;58984;51.960;5.582;2024-01-15T04:37:50;4.65;;;1.95;;
71236;SDS011;58984;51.960;5.582;2024-01-15T04:40:17;6.95;;;2.20;;
71236;SDS011;58984;51.960;5.582;2024-01-15T04:42:42;3.75;;;1.83;;
71236;SDS011;58984;51.960;5.582;2024-01-15T04:45:08;4.95;;;1.90;;
71236;SDS011;58984;51.960;5.582;2024-01-15T04:47:34;5.68;;;1.90;;
71236;SDS011;58984;51.960;5.582;2024-01-15T04:50:01;5.80;;;2.13;;
71236;SDS011;58984;51.960;5.582;2024-01-15T04:52:28;4.75;;;2.33;;
71236;SDS011;58984;51.960;5.582;2024-01-15T04:54:53;6.93;;;1.95;;
71236;SDS011;58984;51.960;5.582;2024-01-15T04:57:19;6.30;;;2.10;;
71236;SDS011;58984;51.960;5.582;2024-01-15T04:59:44;3.13;;;1.70;;
71236;SDS011;58984;51.960;5.582;2024-01-15T05:02:10;3.63;;;1.88;;
71236;SDS011;58984;51.960;5.582;2024-01-15T05:04:35;2.78;;;1.67;;
71236;SDS011;58984;51.960;5.582;2024-01-15T05:07:01;5.18;;;1.58;;
71236;SDS011;58984;51.960;5.582;2024-01-15T05:09:27;2.65;;;1.50;;
71236;SDS011;58984;51.960;5.582;2024-01-15T05:11:53;2.72;;;1.65;;
71236;SDS011;58984;51.960;5.582;2024-01-15T05:14:19;3.60;;;1.67;;
71236;SDS011;58984;51.960;5.582;2024-01-15T05:16:48;3.45;;;1.35;;
71236;SDS011;58984;51.960;5.582;2024-01-15T05:19:14;4.10;;;1.95;;
71236;SDS011;58984;51.960;5.582;2024-01-15T05:21:40;2.55;;;1.30;;
71236;SDS011;58984;51.960;5.582;2024-01-15T05:24:05;2.65;;;1.40;;
71236;SDS011;58984;51.960;5.582;2024-01-15T05:26:32;1.33;;;1.08;;
71236;SDS011;58984;51.960;5.582;2024-01-15T05:28:58;2.55;;;1.20;;
71236;SDS011;58984;51.960;5.582;2024-01-15T05:31:23;4.38;;;1.50;;
71236;SDS011;58984;51.960;5.582;2024-01-15T05:33:49;2.17;;;1.30;;
71236;SDS011;58984;51.960;5.582;2024-01-15T05:36:14;4.07;;;1.40;;
71236;SDS011;58984;51.960;5.582;2024-01-15T05:38:40;4.68;;;1.48;;
71236;SDS011;58984;51.960;5.582;2024-01-15T05:41:05;2.72;;;1.48;;
71236;SDS011;58984;51.960;5.582;2024-01-15T05:43:31;3.55;;;1.30;;
71236;SDS011;58984;51.960;5.582;2024-01-15T05:45:57;2.85;;;1.60;;
71236;SDS011;58984;51.960;5.582;2024-01-15T05:48:23;3.15;;;1.40;;
71236;SDS011;58984;51.960;5.582;2024-01-15T05:50:48;3.45;;;1.30;;
71236;SDS011;58984;51.960;5.582;2024-01-15T05:53:14;4.53;;;1.38;;
71236;SDS011;58984;51.960;5.582;2024-01-15T05:55:39;5.72;;;1.35;;
71236;SDS011;58984;51.960;5.582;2024-01-15T05:58:05;3.17;;;1.13;;
71236;SDS011;58984;51.960;5.582;2024-01-15T06:00:31;2.50;;;1.20;;
71236;SDS011;58984;51.960;5.582;2024-01-15T06:02:58;3.92;;;1.30;;
71236;SDS011;58984;51.960;5.582;2024-01-15T06:05:24;1.83;;;1.20;;
71236;SDS011;58984;51.960;5.582;2024-01-15T06:07:50;3.85;;;1.30;;
71236;SDS011;58984;51.960;5.582;2024-01-15T06:10:15;2.13;;;1.25;;
71236;SDS011;58984;51.960;5.582;2024-01-15T06:12:42;3.90;;;1.20;;
71236;SDS011;58984;51.960;5.582;2024-01-15T06:15:08;3.33;;;1.38;;
71236;SDS011;58984;51.960;5.582;2024-01-15T06:17:34;3.55;;;1.40;;
71236;SDS011;58984;51.960;5.582;2024-01-15T06:19:59;2.03;;;1.55;;
71236;SDS011;58984;51.960;5.582;2024-01-15T06:22:25;2.15;;;1.77;;
71236;SDS011;58984;51.960;5.582;2024-01-15T06:24:50;2.35;;;1.85;;
71236;SDS011;58984;51.960;5.582;2024-01-15T06:27:16;3.20;;;2.40;;
71236;SDS011;58984;51.960;5.582;2024-01-15T06:29:44;2.95;;;2.55;;
71236;SDS011;58984;51.960;5.582;2024-01-15T06:32:12;3.03;;;2.75;;
71236;SDS011;58984;51.960;5.582;2024-01-15T06:34:38;3.42;;;2.55;;
71236;SDS011;58984;51.960;5.582;2024-01-15T06:37:04;6.63;;;2.88;;
71236;SDS011;58984;51.960;5.582;2024-01-15T06:39:29;4.80;;;3.13;;
71236;SDS011;58984;51.960;5.582;2024-01-15T06:41:55;4.90;;;3.20;;
71236;SDS011;58984;51.960;5.582;2024-01-15T06:44:20;7.45;;;3.60;;
71236;SDS011;58984;51.960;5.582;2024-01-15T06:46:46;4.97;;;3.15;;
71236;SDS011;58984;51.960;5.582;2024-01-15T06:49:12;4.20;;;3.08;;
71236;SDS011;58984;51.960;5.582;2024-01-15T06:51:38;4.65;;;3.30;;
71236;SDS011;58984;51.960;5.582;2024-01-15T06:54:04;3.72;;;3.35;;
71236;SDS011;58984;51.960;5.582;2024-01-15T06:56:30;4.13;;;3.17;;
71236;SDS011;58984;51.960;5.582;2024-01-15T06:58:56;3.60;;;2.97;;
71236;SDS011;58984;51.960;5.582;2024-01-15T07:01:22;3.78;;;3.40;;
71236;SDS011;58984;51.960;5.582;2024-01-15T07:03:48;3.50;;;3.13;;
71236;SDS011;58984;51.960;5.582;2024-01-15T07:06:13;3.72;;;3.00;;
71236;SDS011;58984;51.960;5.582;2024-01-15T07:08:39;4.22;;;3.25;;
71236;SDS011;58984;51.960;5.582;2024-01-15T07:11:05;4.97;;;3.17;;
71236;SDS011;58984;51.960;5.582;2024-01-15T07:13:32;5.05;;;3.78;;
71236;SDS011;58984;51.960;5.582;2024-01-15T07:15:57;4.15;;;3.35;;
71236;SDS011;58984;51.960;5.582;2024-01-15T07:18:23;4.35;;;2.95;;
71236;SDS011;58984;51.960;5.582;2024-01-15T07:20:49;3.58;;;3.00;;
71236;SDS011;58984;51.960;5.582;2024-01-15T07:23:15;4.13;;;3.72;;
71236;SDS011;58984;51.960;5.582;2024-01-15T07:25:41;5.35;;;3.45;;
71236;SDS011;58984;51.960;5.582;2024-01-15T07:28:07;5.88;;;3.63;;
71236;SDS011;58984;51.960;5.582;2024-01-15T07:30:33;4.25;;;3.28;;
71236;SDS011;58984;51.960;5.582;2024-01-15T07:32:58;4.60;;;3.63;;
71236;SDS011;58984;51.960;5.582;2024-01-15T07:35:24;4.47;;;3.80;;
71236;SDS011;58984;51.960;5.582;2024-01-15T07:37:49;4.50;;;3.47;;
71236;SDS011;58984;51.960;5.582;2024-01-15T07:40:16;3.80;;;3.35;;
71236;SDS011;58984;51.960;5.582;2024-01-15T07:42:42;4.28;;;3.42;;
71236;SDS011;58984;51.960;5.582;2024-01-15T07:45:08;5.43;;;3.47;;
71236;SDS011;58984;51.960;5.582;2024-01-15T07:47:34;4.32;;;3.17;;
71236;SDS011;58984;51.960;5.582;2024-01-15T07:50:00;6.25;;;3.30;;
71236;SDS011;58984;51.960;5.582;2024-01-15T07:52:25;3.30;;;3.00;;
71236;SDS011;58984;51.960;5.582;2024-01-15T07:54:51;3.13;;;2.78;;
71236;SDS011;58984;51.960;5.582;2024-01-15T07:57:16;3.10;;;2.60;;
71236;SDS011;58984;51.960;5.582;2024-01-15T07:59:42;3.33;;;3.03;;
71236;SDS011;58984;51.960;5.582;2024-01-15T08:02:08;2.70;;;2.50;;
71236;SDS011;58984;51.960;5.582;2024-01-15T08:04:33;4.25;;;2.70;;
71236;SDS011;58984;51.960;5.582;2024-01-15T08:06:59;2.97;;;2.67;;
71236;SDS011;58984;51.960;5.582;2024-01-15T08:09:24;4.00;;;2.63;;
71236;SDS011;58984;51.960;5.582;2024-01-15T08:11:50;4.53;;;2.28;;
71236;SDS011;58984;51.960;5.582;2024-01-15T08:14:16;6.43;;;2.50;;
71236;SDS011;58984;51.960;5.582;2024-01-15T08:16:42;5.00;;;2.65;;
71236;SDS011;58984;51.960;5.582;2024-01-15T08:19:08;3.75;;;2.47;;
71236;SDS011;58984;51.960;5.582;2024-01-15T08:21:34;2.53;;;2.28;;
71236;SDS011;58984;51.960;5.582;2024-01-15T08:24:00;3.25;;;2.40;;
71236;SDS011;58984;51.960;5.582;2024-01-15T08:26:27;4.82;;;2.58;;
71236;SDS011;58984;51.960;5.582;2024-01-15T08:28:55;5.20;;;2.80;;
71236;SDS011;58984;51.960;5.582;2024-01-15T08:31:22;5.03;;;2.70;;
71236;SDS011;58984;51.960;5.582;2024-01-15T08:33:47;3.00;;;2.42;;
71236;SDS011;58984;51.960;5.582;2024-01-15T08:36:13;4.22;;;2.60;;
71236;SDS011;58984;51.960;5.582;2024-01-15T08:38:39;3.67;;;2.67;;
71236;SDS011;58984;51.960;5.582;2024-01-15T08:41:04;2.92;;;2.60;;
71236;SDS011;58984;51.960;5.582;2024-01-15T08:43:30;4.00;;;2.38;;
71236;SDS011;58984;51.960;5.582;2024-01-15T08:45:58;4.28;;;2.20;;
71236;SDS011;58984;51.960;5.582;2024-01-15T08:48:24;6.55;;;2.90;;
71236;SDS011;58984;51.960;5.582;2024-01-15T08:50:52;3.28;;;2.53;;
71236;SDS011;58984;51.960;5.582;2024-01-15T08:53:18;3.83;;;2.92;;
71236;SDS011;58984;51.960;5.582;2024-01-15T08:55:44;4.10;;;2.83;;
71236;SDS011;58984;51.960;5.582;2024-01-15T08:58:09;3.35;;;2.58;;
71236;SDS011;58984;51.960;5.582;2024-01-15T09:00:35;6.95;;;2.80;;
71236;SDS011;58984;51.960;5.582;2024-01-15T09:03:01;5.50;;;2.60;;
71236;SDS011;58984;51.960;5.582;2024-01-15T09:05:27;5.88;;;2.80;;
71236;SDS011;58984;51.960;5.582;2024-01-15T09:07:53;3.88;;;2.33;;
71236;SDS011;58984;51.960;5.582;2024-01-15T09:10:19;5.68;;;2.50;;
71236;SDS011;58984;51.960;5.582;2024-01-15T09:12:45;6.00;;;2.67;;
71236;SDS011;58984;51.960;5.582;2024-01-15T09:15:11;3.58;;;2.53;;
71236;SDS011;58984;51.960;5.582;2024-01-15T09:17:37;5.00;;;2.75;;
71236;SDS011;58984;51.960;5.582;2024-01-15T09:20:02;5.63;;;3.20;;
71236;SDS011;58984;51.960;5.582;2024-01-15T09:22:30;7.03;;;3.60;;
71236;SDS011;58984;51.960;5.582;2024-01-15T09:24:56;4.80;;;3.30;;
71236;SDS011;58984;51.960;5.582;2024-01-15T09:27:22;6.15;;;3.35;;
71236;SDS011;58984;51.960;5.582;2024-01-15T09:29:47;5.25;;;2.90;;
71236;SDS011;58984;51.960;5.582;2024-01-15T09:32:13;6.85;;;2.88;;
71236;SDS011;58984;51.960;5.582;2024-01-15T09:34:39;5.55;;;3.30;;
71236;SDS011;58984;51.960;5.582;2024-01-15T09:37:04;3.08;;;2.45;;
71236;SDS011;58984;51.960;5.582;2024-01-15T09:39:30;12.85;;;2.92;;
71236;SDS011;58984;51.960;5.582;2024-01-15T09:41:57;8.35;;;2.58;;
71236;SDS011;58984;51.960;5.582;2024-01-15T09:44:22;4.82;;;2.60;;
71236;SDS011;58984;51.960;5.582;2024-01-15T09:46:48;3.03;;;1.83;;
71236;SDS011;58984;51.960;5.582;2024-01-15T09:49:17;2.70;;;2.42;;
71236;SDS011;58984;51.960;5.582;2024-01-15T09:51:44;3.42;;;2.33;;
71236;SDS011;58984;51.960;5.582;2024-01-15T09:54:10;5.55;;;2.97;;
71236;SDS011;58984;51.960;5.582;2024-01-15T09:56:38;5.40;;;2.53;;
71236;SDS011;58984;51.960;5.582;2024-01-15T09:59:04;3.67;;;3.08;;
71236;SDS011;58984;51.960;5.582;2024-01-15T10:01:31;3.92;;;2.92;;
71236;SDS011;58984;51.960;5.582;2024-01-15T10:03:58;2.83;;;2.40;;
71236;SDS011;58984;51.960;5.582;2024-01-15T10:06:24;6.45;;;3.45;;
71236;SDS011;58984;51.960;5.582;2024-01-15T10:08:52;6.05;;;2.70;;
71236;SDS011;58984;51.960;5.582;2024-01-15T10:11:21;13.43;;;3.13;;
71236;SDS011;58984;51.960;5.582;2024-01-15T10:13:47;4.57;;;3.38;;
71236;SDS011;58984;51.960;5.582;2024-01-15T10:16:18;5.35;;;3.67;;
71236;SDS011;58984;51.960;5.582;2024-01-15T10:18:44;5.53;;;3.38;;
71236;SDS011;58984;51.960;5.582;2024-01-15T10:21:10;6.00;;;3.30;;
71236;SDS011;58984;51.960;5.582;2024-01-15T10:23:35;7.65;;;3.40;;
71236;SDS011;58984;51.960;5.582;2024-01-15T10:26:01;8.32;;;3.50;;
71236;SDS011;58984;51.960;5.582;2024-01-15T10:28:28;4.63;;;3.05;;
71236;SDS011;58984;51.960;5.582;2024-01-15T10:30:56;6.38;;;3.15;;
71236;SDS011;58984;51.960;5.582;2024-01-15T10:33:24;5.80;;;3.60;;
71236;SDS011;58984;51.960;5.582;2024-01-15T10:35:53;5.47;;;3.40;;
71236;SDS011;58984;51.960;5.582;2024-01-15T10:38:20;8.02;;;4.20;;
71236;SDS011;58984;51.960;5.582;2024-01-15T10:40:56;7.30;;;3.50;;
71236;SDS011;58984;51.960;5.582;2024-01-15T10:43:22;5.07;;;3.25;;
71236;SDS011;58984;51.960;5.582;2024-01-15T10:45:49;5.57;;;3.83;;
71236;SDS011;58984;51.960;5.582;2024-01-15T10:48:16;4.55;;;4.15;;
71236;SDS011;58984;51.960;5.582;2024-01-15T10:50:43;6.65;;;3.63;;
71236;SDS011;58984;51.960;5.582;2024-01-15T10:53:10;7.63;;;3.83;;
71236;SDS011;58984;51.960;5.582;2024-01-15T10:55:38;5.70;;;3.53;;
71236;SDS011;58984;51.960;5.582;2024-01-15T10:58:07;6.55;;;3.85;;
71236;SDS011;58984;51.960;5.582;2024-01-15T11:00:36;5.15;;;3.55;;
71236;SDS011;58984;51.960;5.582;2024-01-15T11:03:03;5.72;;;3.63;;
71236;SDS011;58984;51.960;5.582;2024-01-15T11:05:46;5.75;;;3.00;;
71236;SDS011;58984;51.960;5.582;2024-01-15T11:08:12;5.80;;;3.53;;
71236;SDS011;58984;51.960;5.582;2024-01-15T11:10:42;7.00;;;3.00;;
71236;SDS011;58984;51.960;5.582;2024-01-15T11:18:25;5.70;;;2.72;;
71236;SDS011;58984;51.960;5.582;2024-01-15T11:23:56;5.05;;;2.60;;
71236;SDS011;58984;51.960;5.582;2024-01-15T11:26:29;3.38;;;1.85;;
71236;SDS011;58984;51.960;5.582;2024-01-15T11:32:00;9.00;;;2.60;;
71236;SDS011;58984;51.960;5.582;2024-01-15T11:37:19;5.95;;;1.95;;
71236;SDS011;58984;51.960;5.582;2024-01-15T11:39:46;4.80;;;2.30;;
71236;SDS011;58984;51.960;5.582;2024-01-15T11:42:12;5.85;;;2.70;;
71236;SDS011;58984;51.960;5.582;2024-01-15T11:44:39;3.55;;;2.00;;
71236;SDS011;58984;51.960;5.582;2024-01-15T11:52:20;7.78;;;2.22;;
71236;SDS011;58984;51.960;5.582;2024-01-15T11:54:57;7.55;;;3.03;;
71236;SDS011;58984;51.960;5.582;2024-01-15T12:00:04;4.88;;;2.30;;
71236;SDS011;58984;51.960;5.582;2024-01-15T12:02:33;5.25;;;2.75;;
71236;SDS011;58984;51.960;5.582;2024-01-15T12:04:59;5.85;;;2.33;;
71236;SDS011;58984;51.960;5.582;2024-01-15T12:07:25;8.10;;;2.72;;
71236;SDS011;58984;51.960;5.582;2024-01-15T12:09:50;7.88;;;3.40;;
71236;SDS011;58984;51.960;5.582;2024-01-15T12:12:20;3.90;;;2.55;;
71236;SDS011;58984;51.960;5.582;2024-01-15T12:15:11;6.78;;;3.13;;
71236;SDS011;58984;51.960;5.582;2024-01-15T12:17:36;9.35;;;4.28;;
71236;SDS011;58984;51.960;5.582;2024-01-15T12:20:06;12.82;;;4.65;;
71236;SDS011;58984;51.960;5.582;2024-01-15T12:22:32;6.10;;;3.72;;
71236;SDS011;58984;51.960;5.582;2024-01-15T12:24:58;9.30;;;3.72;;
71236;SDS011;58984;51.960;5.582;2024-01-15T12:27:23;7.55;;;3.47;;
71236;SDS011;58984;51.960;5.582;2024-01-15T12:29:49;10.48;;;4.50;;
71236;SDS011;58984;51.960;5.582;2024-01-15T12:32:15;5.55;;;3.92;;
71236;SDS011;58984;51.960;5.582;2024-01-15T12:34:41;10.35;;;5.80;;
71236;SDS011;58984;51.960;5.582;2024-01-15T12:37:07;7.20;;;3.75;;
71236;SDS011;58984;51.960;5.582;2024-01-15T12:39:34;8.75;;;3.38;;
71236;SDS011;58984;51.960;5.582;2024-01-15T12:42:01;6.60;;;3.95;;
71236;SDS011;58984;51.960;5.582;2024-01-15T12:44:27;6.63;;;3.60;;
71236;SDS011;58984;51.960;5.582;2024-01-15T12:46:53;6.53;;;3.13;;
71236;SDS011;58984;51.960;5.582;2024-01-15T12:49:19;5.80;;;3.38;;
71236;SDS011;58984;51.960;5.582;2024-01-15T12:52:08;8.15;;;3.15;;
71236;SDS011;58984;51.960;5.582;2024-01-15T12:54:33;4.18;;;3.00;;
71236;SDS011;58984;51.960;5.582;2024-01-15T12:56:59;7.68;;;2.92;;
71236;SDS011;58984;51.960;5.582;2024-01-15T12:59:24;5.15;;;2.60;;
71236;SDS011;58984;51.960;5.582;2024-01-15T13:01:50;8.18;;;2.78;;
71236;SDS011;58984;51.960;5.582;2024-01-15T13:04:22;7.88;;;2.70;;
71236;SDS011;58984;51.960;5.582;2024-01-15T13:09:14;5.18;;;2.83;;
71236;SDS011;58984;51.960;5.582;2024-01-15T13:11:42;2.95;;;2.60;;
71236;SDS011;58984;51.960;5.582;2024-01-15T13:14:12;4.82;;;2.90;;
71236;SDS011;58984;51.960;5.582;2024-01-15T13:16:41;5.55;;;2.63;;
71236;SDS011;58984;51.960;5.582;2024-01-15T13:19:12;2.92;;;2.22;;
71236;SDS011;58984;51.960;5.582;2024-01-15T13:21:41;3.37;;;2.03;;
71236;SDS011;58984;51.960;5.582;2024-01-15T13:24:09;4.30;;;2.67;;
71236;SDS011;58984;51.960;5.582;2024-01-15T13:26:36;3.40;;;2.40;;
71236;SDS011;58984;51.960;5.582;2024-01-15T13:29:04;5.03;;;2.88;;
71236;SDS011;58984;51.960;5.582;2024-01-15T13:31:31;5.32;;;2.40;;
71236;SDS011;58984;51.960;5.582;2024-01-15T13:33:57;6.05;;;2.88;;
71236;SDS011;58984;51.960;5.582;2024-01-15T13:36:23;7.88;;;2.72;;
71236;SDS011;58984;51.960;5.582;2024-01-15T13:38:49;5.35;;;2.58;;
71236;SDS011;58984;51.960;5.582;2024-01-15T13:41:16;3.42;;;2.35;;
71236;SDS011;58984;51.960;5.582;2024-01-15T13:43:44;6.47;;;2.95;;
71236;SDS011;58984;51.960;5.582;2024-01-15T13:46:14;5.25;;;2.85;;
71236;SDS011;58984;51.960;5.582;2024-01-15T13:48:39;8.82;;;2.78;;
71236;SDS011;58984;51.960;5.582;2024-01-15T13:51:05;5.28;;;2.45;;
71236;SDS011;58984;51.960;5.582;2024-01-15T13:53:31;5.07;;;2.78;;
71236;SDS011;58984;51.960;5.582;2024-01-15T13:55:57;4.63;;;2.60;;
71236;SDS011;58984;51.960;5.582;2024-01-15T13:58:22;6.57;;;3.08;;
71236;SDS011;58984;51.960;5.582;2024-01-15T14:00:50;5.15;;;3.40;;
71236;SDS011;58984;51.960;5.582;2024-01-15T14:03:16;5.38;;;3.03;;
71236;SDS011;58984;51.960;5.582;2024-01-15T14:05:41;7.15;;;3.20;;
71236;SDS011;58984;51.960;5.582;2024-01-15T14:08:07;6.88;;;3.70;;
71236;SDS011;58984;51.960;5.582;2024-01-15T14:10:33;9.77;;;3.95;;
71236;SDS011;58984;51.960;5.582;2024-01-15T14:12:58;7.00;;;3.40;;
71236;SDS011;58984;51.960;5.582;2024-01-15T14:15:24;7.28;;;3.35;;
71236;SDS011;58984;51.960;5.582;2024-01-15T14:17:49;5.60;;;3.60;;
71236;SDS011;58984;51.960;5.582;2024-01-15T14:20:15;7.15;;;3.40;;
71236;SDS011;58984;51.960;5.582;2024-01-15T14:22:41;7.90;;;3.60;;
71236;SDS011;58984;51.960;5.582;2024-01-15T14:25:07;7.75;;;3.83;;
71236;SDS011;58984;51.960;5.582;2024-01-15T14:27:33;6.97;;;3.60;;
71236;SDS011;58984;51.960;5.582;2024-01-15T14:29:59;6.97;;;4.00;;
71236;SDS011;58984;51.960;5.582;2024-01-15T14:32:24;6.03;;;3.67;;
71236;SDS011;58984;51.960;5.582;2024-01-15T14:34:50;6.40;;;3.58;;
71236;SDS011;58984;51.960;5.582;2024-01-15T14:37:16;7.63;;;3.45;;
71236;SDS011;58984;51.960;5.582;2024-01-15T14:39:41;7.68;;;3.25;;
71236;SDS011;58984;51.960;5.582;2024-01-15T14:42:08;9.68;;;3.15;;
71236;SDS011;58984;51.960;5.582;2024-01-15T14:44:33;11.48;;;3.55;;
71236;SDS011;58984;51.960;5.582;2024-01-15T14:47:00;5.72;;;3.20;;
71236;SDS011;58984;51.960;5.582;2024-01-15T14:49:25;11.25;;;4.20;;
71236;SDS011;58984;51.960;5.582;2024-01-15T14:51:51;7.60;;;3.25;;
71236;SDS011;58984;51.960;5.582;2024-01-15T14:54:16;7.85;;;3.58;;
71236;SDS011;58984;51.960;5.582;2024-01-15T14:56:42;12.50;;;4.20;;
71236;SDS011;58984;51.960;5.582;2024-01-15T14:59:08;5.55;;;3.75;;
71236;SDS011;58984;51.960;5.582;2024-01-15T15:01:33;6.13;;;3.17;;
71236;SDS011;58984;51.960;5.582;2024-01-15T15:03:59;9.70;;;3.58;;
71236;SDS011;58984;51.960;5.582;2024-01-15T15:06:25;10.63;;;4.18;;